Time;durP1;ratioP1;P1;durP2;ratioP2;P2;SDS_P1;SDS_P2;PMS_P1;PMS_P2;Temp;Humidity;BMP_temperature;BMP_pressure;BME280_temperature;BME280_humidity;BME280_pressure;Samples;Min_cycle;Max_cycle;Signal;HPM_P1;HPM_P2
2022/04/26 03:36:10;;;;;;;27.80;17.05;;;;;;;22.62;41.06;99061.28;347177;28;975;-73
2022/04/26 03:36:22;;;;;;;28.77;17.17;;;;;;;22.62;40.94;99063.94;347970;28;1239;-73
2022/04/26 03:36:34;;;;;;;29.45;17.25;;;;;;;22.61;40.64;99062.25;346472;28;1274;-73
2022/04/26 03:36:46;;;;;;;28.30;17.00;;;;;;;22.62;40.96;99058.66;345958;28;2438;-73
2022/04/26 03:36:59;;;;;;;27.27;17.20;;;;;;;22.62;41.02;99058.66;347105;28;1470;-73
2022/04/26 03:37:12;;;;;;;27.00;17.48;;;;;;;22.64;40.57;99067.28;347415;28;1062;-73
2022/04/26 03:37:24;;;;;;;28.08;17.77;;;;;;;22.63;40.56;99055.00;346515;28;2283;-73
2022/04/26 03:37:36;;;;;;;29.15;16.95;;;;;;;22.65;40.90;99063.66;347010;28;1920;-73
2022/04/26 03:37:48;;;;;;;26.67;16.10;;;;;;;22.64;40.80;99062.00;347271;28;1723;-73
2022/04/26 03:38:00;;;;;;;24.70;16.00;;;;;;;22.61;40.73;99062.25;347427;28;1946;-73
2022/04/26 03:38:12;;;;;;;25.10;16.38;;;;;;;22.63;40.93;99059.47;346252;28;1183;-73
2022/04/26 03:38:24;;;;;;;26.42;16.67;;;;;;;22.65;40.84;99063.66;346322;28;1010;-73
2022/04/26 03:38:38;;;;;;;28.95;17.17;;;;;;;22.65;40.90;99061.00;344852;28;1261;-73
2022/04/26 03:38:52;;;;;;;28.05;17.17;;;;;;;22.66;40.92;99065.31;345194;28;1819;-73
2022/04/26 03:39:05;;;;;;;25.83;17.15;;;;;;;22.66;40.42;99060.03;345779;28;1059;-73
2022/04/26 03:39:17;;;;;;;26.30;17.15;;;;;;;22.67;40.60;99058.22;347103;28;1226;-73
2022/04/26 03:39:29;;;;;;;26.42;17.17;;;;;;;22.66;40.63;99059.19;347398;28;1291;-73
2022/04/26 03:39:41;;;;;;;25.63;16.70;;;;;;;22.66;40.83;99062.69;346930;28;2530;-73
2022/04/26 03:39:55;;;;;;;26.10;16.77;;;;;;;22.65;40.47;99061.00;346910;28;1800;-73
2022/04/26 03:40:08;;;;;;;25.40;16.55;;;;;;;22.64;40.38;99062.00;346138;28;1154;-73
2022/04/26 03:40:20;;;;;;;25.27;16.30;;;;;;;22.63;40.49;99060.31;345985;28;2489;-73
2022/04/26 03:40:32;;;;;;;24.38;15.98;;;;;;;22.64;40.65;99062.00;347030;28;1579;-73
2022/04/26 03:40:44;;;;;;;23.48;15.88;;;;;;;22.66;40.54;99060.03;347901;28;1130;-73
2022/04/26 03:40:57;;;;;;;23.70;15.57;;;;;;;22.66;40.74;99064.50;347464;28;1125;-73
2022/04/26 03:41:10;;;;;;;24.60;16.25;;;;;;;22.62;40.78;99061.28;347473;28;1137;-73
2022/04/26 03:41:22;;;;;;;24.48;16.00;;;;;;;22.63;40.86;99060.31;347623;28;1033;-72
2022/04/26 03:41:34;;;;;;;23.60;15.52;;;;;;;22.63;40.84;99060.31;347465;28;1326;-71
2022/04/26 03:41:46;;;;;;;22.20;15.18;;;;;;;22.64;40.80;99062.00;346631;28;1799;-74
2022/04/26 03:42:00;;;;;;;23.38;15.75;;;;;;;22.65;40.61;99061.00;347221;28;1902;-73
2022/04/26 03:42:12;;;;;;;24.58;16.02;;;;;;;22.64;40.99;99056.69;346032;28;1111;-72
2022/04/26 03:42:24;;;;;;;24.27;15.70;;;;;;;22.65;40.86;99066.28;346014;28;970;-73
2022/04/26 03:42:36;;;;;;;23.00;15.40;;;;;;;22.63;40.84;99059.47;344921;28;1257;-73
2022/04/26 03:42:48;;;;;;;24.00;15.45;;;;;;;22.66;40.79;99059.19;345644;28;1758;-73
2022/04/26 03:43:02;;;;;;;26.30;16.42;;;;;;;22.66;40.98;99060.03;346069;28;1954;-74
2022/04/26 03:43:14;;;;;;;27.15;16.63;;;;;;;22.66;40.57;99060.03;346314;28;1854;-71
2022/04/26 03:43:26;;;;;;;25.83;16.30;;;;;;;22.66;40.53;99059.19;347922;28;1280;-70
2022/04/26 03:43:38;;;;;;;24.67;16.52;;;;;;;22.64;40.70;99059.34;348581;28;1951;-70
2022/04/26 03:43:50;;;;;;;24.98;16.65;;;;;;;22.63;40.92;99065.59;347736;28;1043;-70
2022/04/26 03:44:02;;;;;;;25.23;16.88;;;;;;;22.63;40.90;99065.59;347302;28;1308;-70
2022/04/26 03:44:14;;;;;;;26.08;16.77;;;;;;;22.61;40.52;99059.59;347538;28;1036;-70
2022/04/26 03:44:26;;;;;;;26.10;16.35;;;;;;;22.61;41.01;99062.25;347817;28;1270;-73
2022/04/26 03:44:39;;;;;;;24.08;15.43;;;;;;;22.61;40.99;99058.78;349512;28;1300;-73
2022/04/26 03:44:51;;;;;;;23.27;15.35;;;;;;;22.61;41.06;99062.25;349082;28;1182;-73
2022/04/26 03:45:03;;;;;;;24.55;15.88;;;;;;;22.63;40.64;99054.16;349075;28;1081;-73
2022/04/26 03:45:15;;;;;;;26.95;16.48;;;;;;;22.65;40.62;99060.16;349115;28;1076;-73
2022/04/26 03:45:28;;;;;;;28.23;16.77;;;;;;;22.65;40.68;99047.75;348857;28;1276;-73
2022/04/26 03:45:40;;;;;;;30.67;17.02;;;;;;;22.64;40.97;99062.00;347789;28;1245;-70
2022/04/26 03:45:52;;;;;;;28.23;16.40;;;;;;;22.65;41.01;99057.50;347875;28;1010;-70
2022/04/26 03:46:05;;;;;;;25.30;15.50;;;;;;;22.65;40.86;99055.69;347792;28;1353;-73
2022/04/26 03:46:17;;;;;;;22.83;15.35;;;;;;;22.66;40.88;99054.72;347796;28;1182;-73
2022/04/26 03:46:29;;;;;;;22.00;15.43;;;;;;;22.66;40.86;99060.03;347721;28;999;-73
2022/04/26 03:46:41;;;;;;;23.02;16.10;;;;;;;22.67;41.13;99055.56;347982;28;1066;-73
2022/04/26 03:46:53;;;;;;;24.55;16.25;;;;;;;22.66;40.95;99059.19;347881;28;1209;-73
2022/04/26 03:47:05;;;;;;;29.52;16.63;;;;;;;22.66;40.61;99054.72;347905;28;1601;-73
2022/04/26 03:47:17;;;;;;;29.38;16.63;;;;;;;22.66;40.63;99053.91;347637;28;1097;-73
2022/04/26 03:47:29;;;;;;;26.20;16.50;;;;;;;22.65;40.82;99058.34;347765;28;1156;-73
2022/04/26 03:47:41;;;;;;;25.85;16.50;;;;;;;22.66;40.69;99057.38;347745;28;1118;-73
2022/04/26 03:47:53;;;;;;;25.95;16.83;;;;;;;22.68;40.78;99059.91;347659;28;1175;-73
2022/04/26 03:48:06;;;;;;;24.92;16.52;;;;;;;22.67;40.49;99051.09;347937;28;1225;-73
2022/04/26 03:48:19;;;;;;;23.35;15.68;;;;;;;22.69;40.51;99051.78;346874;28;1743;-73
2022/04/26 03:48:31;;;;;;;24.80;15.95;;;;;;;22.67;40.81;99048.44;347495;28;1264;-73
2022/04/26 03:48:43;;;;;;;27.45;16.70;;;;;;;22.70;40.89;99055.28;347836;28;1192;-73
2022/04/26 03:48:55;;;;;;;26.42;16.48;;;;;;;22.69;40.86;99054.44;347962;28;1250;-73
2022/04/26 03:49:07;;;;;;;24.70;16.13;;;;;;;22.68;40.97;99055.44;347766;28;1045;-70
2022/04/26 03:49:19;;;;;;;24.83;16.15;;;;;;;22.69;40.91;99049.13;347145;28;1804;-70
2022/04/26 03:49:31;;;;;;;26.00;16.45;;;;;;;22.69;40.52;99048.31;348716;28;1327;-70
2022/04/26 03:49:44;;;;;;;26.13;16.80;;;;;;;22.68;40.81;99058.06;348989;28;1160;-70
2022/04/26 03:49:56;;;;;;;26.33;17.08;;;;;;;22.64;40.86;99056.69;349504;28;1091;-70
2022/04/26 03:50:08;;;;;;;26.30;16.95;;;;;;;22.63;40.63;99060.31;349130;28;1198;-72
2022/04/26 03:50:21;;;;;;;26.75;16.83;;;;;;;22.61;40.63;99056.97;349492;28;1240;-72
2022/04/26 03:50:33;;;;;;;26.30;16.85;;;;;;;22.61;41.00;99051.66;347732;28;1247;-72
2022/04/26 03:50:45;;;;;;;26.23;16.67;;;;;;;22.61;40.72;99049.00;347998;28;1221;-72
2022/04/26 03:50:58;;;;;;;25.83;16.35;;;;;;;22.61;41.02;99061.44;347976;28;1069;-73
2022/04/26 03:51:10;;;;;;;25.55;16.33;;;;;;;22.58;41.01;99051.97;347753;28;1117;-72
2022/04/26 03:51:22;;;;;;;23.73;16.20;;;;;;;22.59;40.66;99052.78;347840;28;1206;-73
2022/04/26 03:51:34;;;;;;;24.85;16.58;;;;;;;22.58;40.86;99051.97;348012;28;1114;-73
2022/04/26 03:51:46;;;;;;;25.52;17.02;;;;;;;22.59;40.96;99048.31;347894;28;1073;-72
2022/04/26 03:51:59;;;;;;;26.42;17.17;;;;;;;22.59;40.78;99053.63;347712;28;1106;-72
2022/04/26 03:52:11;;;;;;;25.95;16.55;;;;;;;22.58;40.98;99051.09;347536;28;1201;-73
2022/04/26 03:52:23;;;;;;;23.90;15.90;;;;;;;22.61;40.88;99053.47;347951;28;1186;-73
2022/04/26 03:52:35;;;;;;;22.63;15.73;;;;;;;22.62;40.89;99049.88;347994;28;1072;-73
2022/04/26 03:52:47;;;;;;;23.42;15.77;;;;;;;22.63;40.79;99049.69;347635;28;1021;-73
2022/04/26 03:52:58;;;;;;;23.60;15.93;;;;;;;22.64;41.22;99054.03;347850;28;1476;-73
2022/04/26 03:53:10;;;;;;;22.85;15.52;;;;;;;22.64;41.28;99048.75;347720;28;1037;-73
2022/04/26 03:53:22;;;;;;;23.58;15.25;;;;;;;22.65;40.92;99047.75;346959;28;1791;-70
2022/04/26 03:53:35;;;;;;;23.88;15.60;;;;;;;22.66;41.27;99052.09;346523;28;1070;-70
2022/04/26 03:53:47;;;;;;;24.98;16.42;;;;;;;22.67;41.04;99048.44;346442;28;1034;-70
2022/04/26 03:53:59;;;;;;;23.73;16.20;;;;;;;22.69;41.13;99049.13;346271;28;1284;-74
2022/04/26 03:54:16;;;;;;;26.63;16.33;;;;;;;22.69;40.99;99054.44;346347;28;1011;-73
2022/04/26 03:54:28;;;;;;;28.75;17.35;;;;;;;22.70;40.62;99053.47;346985;28;1331;-73
2022/04/26 03:54:40;;;;;;;26.58;16.90;;;;;;;22.69;40.57;99054.44;347649;28;1069;-73
2022/04/26 03:54:52;;;;;;;25.83;16.92;;;;;;;22.69;40.63;99046.47;347580;28;1129;-73
2022/04/26 03:55:05;;;;;;;25.08;16.88;;;;;;;22.67;40.34;99051.09;347579;28;1097;-73
2022/04/26 03:55:17;;;;;;;26.65;17.17;;;;;;;22.70;40.51;99056.13;347596;28;1176;-73
2022/04/26 03:55:29;;;;;;;26.80;17.13;;;;;;;22.69;40.63;99049.13;347343;28;1312;-72
2022/04/26 03:55:41;;;;;;;27.13;17.02;;;;;;;22.71;40.36;99059.59;347455;28;1057;-71
2022/04/26 03:55:54;;;;;;;26.73;16.80;;;;;;;22.69;40.24;99054.44;347469;28;1053;-72
2022/04/26 03:56:06;;;;;;;26.05;16.83;;;;;;;22.71;40.78;99057.78;346273;28;1117;-72
2022/04/26 03:56:18;;;;;;;25.40;16.88;;;;;;;22.70;40.80;99061.41;346253;28;1135;-73
2022/04/26 03:56:30;;;;;;;25.83;16.70;;;;;;;22.69;40.71;99054.44;346197;28;1110;-73
2022/04/26 03:56:42;;;;;;;26.02;16.67;;;;;;;22.68;40.37;99063.38;346136;28;1095;-73
2022/04/26 03:56:54;;;;;;;27.50;16.73;;;;;;;22.65;40.57;99062.81;345940;28;2183;-73
2022/04/26 03:57:06;;;;;;;27.30;17.20;;;;;;;22.23;40.75;99058.63;346462;28;1090;-73
2022/04/26 03:57:18;;;;;;;25.25;16.77;;;;;;;22.07;41.53;99068.91;346083;28;1288;-72
2022/04/26 03:57:30;;;;;;;25.48;16.90;;;;;;;21.88;41.77;99062.63;346181;28;1340;-72
2022/04/26 03:57:42;;;;;;;27.55;17.02;;;;;;;21.76;42.21;99061.06;346109;28;1121;-72
2022/04/26 03:57:54;;;;;;;28.70;17.60;;;;;;;21.73;42.12;99056.03;345504;28;2267;-72
2022/04/26 03:58:06;;;;;;;28.02;18.00;;;;;;;21.80;42.07;99065.13;345083;28;1042;-72
2022/04/26 03:58:18;;;;;;;24.13;16.90;;;;;;;21.88;41.67;99059.16;346064;28;1093;-72
2022/04/26 03:58:30;;;;;;;23.67;16.83;;;;;;;21.96;41.75;99056.66;346907;28;1837;-71
2022/04/26 03:58:42;;;;;;;25.42;16.65;;;;;;;22.01;41.39;99058.88;347705;28;1054;-70
2022/04/26 03:58:54;;;;;;;25.38;16.58;;;;;;;21.90;41.20;99060.69;347707;28;1180;-70
2022/04/26 03:59:06;;;;;;;25.02;16.55;;;;;;;21.92;40.73;99056.09;348065;28;1219;-73
2022/04/26 03:59:21;;;;;;;25.52;16.77;;;;;;;21.88;41.15;99062.63;347836;28;1093;-73
2022/04/26 03:59:33;;;;;;;25.85;16.90;;;;;;;21.77;41.30;99065.38;347854;28;1201;-72
2022/04/26 03:59:46;;;;;;;25.77;16.80;;;;;;;21.73;41.33;99066.63;347752;28;1140;-72
2022/04/26 03:59:58;;;;;;;25.20;16.65;;;;;;;21.61;41.31;99063.28;347791;28;1131;-72
2022/04/26 04:00:11;;;;;;;25.02;16.80;;;;;;;21.31;41.55;99059.66;347857;28;1211;-72
2022/04/26 04:00:28;;;;;;;25.48;16.45;;;;;;;21.31;41.61;99064.13;347672;28;1058;-73
2022/04/26 04:00:40;;;;;;;26.50;16.77;;;;;;;21.29;41.78;99060.78;347536;28;1046;-73
2022/04/26 04:00:53;;;;;;;26.55;16.80;;;;;;;21.10;41.82;99062.31;347520;28;1221;-73
2022/04/26 04:01:05;;;;;;;25.98;16.55;;;;;;;21.02;42.16;99056.88;347339;28;1025;-73
2022/04/26 04:01:17;;;;;;;25.15;16.42;;;;;;;21.01;42.31;99070.22;347600;28;1192;-73
2022/04/26 04:01:29;;;;;;;25.15;16.90;;;;;;;20.98;42.46;99066.03;347519;28;1338;-71
2022/04/26 04:01:41;;;;;;;26.65;17.02;;;;;;;20.91;42.29;99070.16;347403;28;1286;-70
2022/04/26 04:01:53;;;;;;;27.38;16.48;;;;;;;20.85;42.55;99065.41;347469;28;1046;-70
2022/04/26 04:02:06;;;;;;;26.27;16.30;;;;;;;20.73;42.66;99065.47;347452;28;1331;-70
2022/04/26 04:02:19;;;;;;;27.20;16.75;;;;;;;20.51;43.15;99078.75;347591;28;1318;-70
2022/04/26 04:02:31;;;;;;;28.00;17.13;;;;;;;20.22;43.43;99079.38;347877;28;1185;-70
2022/04/26 04:02:43;;;;;;;27.73;17.42;;;;;;;20.28;44.04;99073.59;347808;28;1088;-70
2022/04/26 04:02:55;;;;;;;27.42;17.17;;;;;;;20.20;43.73;99073.34;347743;28;1270;-70
2022/04/26 04:03:08;;;;;;;27.67;17.60;;;;;;;20.08;44.00;99071.72;346985;28;1818;-70
2022/04/26 04:03:20;;;;;;;29.17;18.95;;;;;;;20.13;44.16;99070.38;347672;28;1042;-70
2022/04/26 04:03:35;;;;;;;31.33;21.77;;;;;;;20.27;43.93;99076.34;347614;28;1311;-70
2022/04/26 04:03:47;;;;;;;32.22;22.77;;;;;;;20.13;44.07;99074.84;347776;28;1006;-70
2022/04/26 04:03:59;;;;;;;30.52;22.00;;;;;;;20.02;44.29;99072.22;347353;28;1353;-70
2022/04/26 04:04:11;;;;;;;30.33;21.40;;;;;;;19.83;44.64;99073.69;347565;28;1053;-70
2022/04/26 04:04:23;;;;;;;29.67;20.20;;;;;;;19.88;44.85;99076.81;347583;28;1298;-70
2022/04/26 04:04:35;;;;;;;29.35;19.83;;;;;;;19.91;44.85;99071.28;347570;28;1192;-70
2022/04/26 04:04:47;;;;;;;28.88;20.67;;;;;;;20.04;44.70;99070.28;347407;28;1117;-71
2022/04/26 04:04:59;;;;;;;28.85;20.80;;;;;;;20.13;44.66;99070.38;347551;28;1043;-73
2022/04/26 04:05:11;;;;;;;30.50;21.35;;;;;;;20.16;44.66;99071.94;347576;28;1041;-73
2022/04/26 04:05:23;;;;;;;31.40;22.08;;;;;;;20.18;44.53;99072.63;347517;28;1058;-73
2022/04/26 04:05:36;;;;;;;33.95;22.35;;;;;;;20.25;44.25;99068.53;347589;28;1186;-73
2022/04/26 04:05:48;;;;;;;37.03;21.75;;;;;;;20.27;44.49;99066.63;347645;28;1086;-71
2022/04/26 04:06:00;;;;;;;37.80;20.85;;;;;;;20.35;44.39;99069.47;346697;28;1760;-71
2022/04/26 04:06:12;;;;;;;38.05;20.52;;;;;;;20.40;44.44;99070.88;347691;28;1063;-70
2022/04/26 04:06:24;;;;;;;37.70;20.85;;;;;;;20.41;44.28;99067.28;347986;28;1066;-70
2022/04/26 04:06:36;;;;;;;39.20;21.60;;;;;;;20.42;44.48;99069.78;346734;28;956;-73
2022/04/26 04:06:48;;;;;;;39.38;21.48;;;;;;;20.38;44.28;99072.81;346394;28;1086;-73
2022/04/26 04:07:00;;;;;;;40.47;21.35;;;;;;;20.37;44.60;99071.16;346532;28;1110;-72
2022/04/26 04:07:12;;;;;;;40.13;20.98;;;;;;;20.46;44.56;99075.66;346479;28;1096;-73
2022/04/26 04:07:24;;;;;;;39.38;21.05;;;;;;;20.44;44.39;99072.31;346235;28;1043;-73
2022/04/26 04:07:36;;;;;;;39.30;20.95;;;;;;;20.45;44.50;99071.34;346477;28;1156;-73
2022/04/26 04:07:48;;;;;;;37.33;21.00;;;;;;;20.44;44.53;99072.31;346667;28;1090;-73
2022/04/26 04:08:00;;;;;;;38.20;21.10;;;;;;;20.51;44.46;99063.75;346445;28;1046;-73
2022/04/26 04:08:12;;;;;;;40.33;21.42;;;;;;;20.51;44.11;99068.19;347566;28;1313;-72
2022/04/26 04:08:24;;;;;;;41.30;21.38;;;;;;;20.43;44.44;99076.75;347743;28;1058;-73
2022/04/26 04:08:36;;;;;;;42.40;21.92;;;;;;;20.50;44.33;99063.88;346697;28;1272;-73
2022/04/26 04:08:48;;;;;;;42.33;21.83;;;;;;;20.43;44.21;99073.28;346538;28;1079;-72
2022/04/26 04:09:00;;;;;;;40.08;21.50;;;;;;;20.43;44.22;99075.94;346231;28;1235;-72
2022/04/26 04:09:12;;;;;;;38.20;20.92;;;;;;;20.33;43.94;99084.59;346410;28;1094;-72
2022/04/26 04:09:24;;;;;;;38.90;20.95;;;;;;;20.32;44.07;99074.16;346641;28;1258;-70
2022/04/26 04:09:36;;;;;;;37.33;20.65;;;;;;;20.30;44.11;99074.31;346486;28;1902;-70
2022/04/26 04:09:48;;;;;;;35.53;20.23;;;;;;;20.23;43.95;99070.47;346137;28;1173;-70
2022/04/26 04:10:00;;;;;;;34.90;20.23;;;;;;;20.19;44.34;99074.31;346247;28;1023;-70
2022/04/26 04:10:12;;;;;;;35.00;20.30;;;;;;;20.24;44.30;99072.16;346703;28;728;-70
2022/04/26 04:10:24;;;;;;;34.53;19.95;;;;;;;20.34;44.19;99078.34;346329;28;1101;-70
2022/04/26 04:10:36;;;;;;;34.15;19.23;;;;;;;20.39;44.30;99077.97;346071;28;1109;-70
2022/04/26 04:10:49;;;;;;;34.22;19.90;;;;;;;20.41;43.73;99078.69;346215;28;1052;-71
2022/04/26 04:11:01;;;;;;;36.72;21.20;;;;;;;20.32;44.07;99076.78;346429;28;1762;-71
2022/04/26 04:11:12;;;;;;;38.03;21.33;;;;;;;20.21;44.29;99077.69;346033;28;1283;-72
2022/04/26 04:11:25;;;;;;;38.13;20.83;;;;;;;20.18;44.29;99072.63;346483;28;1343;-73
2022/04/26 04:11:36;;;;;;;37.55;20.80;;;;;;;20.15;44.38;99078.19;347478;28;1151;-72
2022/04/26 04:11:49;;;;;;;37.83;20.48;;;;;;;20.23;44.37;99080.19;347499;28;1058;-72
2022/04/26 04:12:01;;;;;;;36.00;20.73;;;;;;;20.14;44.46;99080.00;347874;28;1046;-72
2022/04/26 04:12:12;;;;;;;36.22;20.33;;;;;;;20.18;44.36;99083.19;347925;28;1050;-72
2022/04/26 04:12:24;;;;;;;37.90;20.65;;;;;;;20.18;44.53;99077.91;347797;28;1387;-73
2022/04/26 04:12:36;;;;;;;37.00;20.45;;;;;;;20.09;44.56;99078.69;347639;28;1248;-72
2022/04/26 04:12:48;;;;;;;37.25;20.88;;;;;;;20.12;44.77;99083.69;347990;28;1282;-72
2022/04/26 04:13:00;;;;;;;39.70;21.20;;;;;;;20.11;44.85;99079.41;347820;28;1310;-73
2022/04/26 04:13:13;;;;;;;43.17;21.63;;;;;;;20.08;44.94;99087.53;347671;28;1026;-73
2022/04/26 04:13:25;;;;;;;45.17;22.17;;;;;;;20.05;44.98;99082.53;347484;28;1304;-73
2022/04/26 04:13:37;;;;;;;42.65;21.50;;;;;;;20.00;45.02;99082.91;349000;28;1007;-72
2022/04/26 04:13:49;;;;;;;39.10;21.10;;;;;;;20.01;45.02;99086.38;349059;28;1226;-73
2022/04/26 04:14:01;;;;;;;40.22;21.33;;;;;;;20.04;44.96;99080.84;348513;28;1272;-72
2022/04/26 04:14:14;;;;;;;40.47;21.40;;;;;;;20.06;44.72;99084.19;349172;28;1236;-73
2022/04/26 04:14:26;;;;;;;40.90;21.40;;;;;;;20.03;44.89;99087.94;349030;28;1332;-73
2022/04/26 04:14:38;;;;;;;42.88;21.40;;;;;;;20.04;45.07;99081.72;348910;28;1833;-72
2022/04/26 04:14:50;;;;;;;43.17;21.55;;;;;;;19.91;45.20;99089.75;348968;28;1067;-72
2022/04/26 04:15:02;;;;;;;42.47;21.60;;;;;;;19.92;45.33;99082.66;349090;28;1167;-72
2022/04/26 04:15:14;;;;;;;40.60;21.55;;;;;;;19.88;45.36;99082.09;348881;28;1288;-73
2022/04/26 04:15:26;;;;;;;37.45;20.75;;;;;;;19.90;45.16;99089.88;347801;28;1820;-73
2022/04/26 04:15:39;;;;;;;38.58;21.27;;;;;;;19.82;45.24;99090.50;347873;28;1646;-72
2022/04/26 04:15:51;;;;;;;39.60;21.15;;;;;;;19.83;45.26;99084.25;348861;28;1153;-73
2022/04/26 04:16:03;;;;;;;40.55;21.70;;;;;;;19.84;45.31;99088.59;348753;28;925;-72
2022/04/26 04:16:15;;;;;;;38.15;21.42;;;;;;;19.77;45.56;99079.47;347847;28;1188;-72
2022/04/26 04:16:28;;;;;;;40.20;21.75;;;;;;;19.75;45.49;99089.31;347865;28;1367;-72
2022/04/26 04:16:40;;;;;;;40.38;21.83;;;;;;;19.53;46.07;99083.06;348280;28;1764;-72
2022/04/26 04:16:55;;;;;;;39.90;21.48;;;;;;;19.51;45.85;99079.69;348474;28;1038;-72
2022/04/26 04:17:07;;;;;;;37.85;20.85;;;;;;;19.52;45.85;99085.84;347511;28;1327;-73
2022/04/26 04:17:19;;;;;;;37.60;20.63;;;;;;;19.61;45.87;99085.09;347656;28;1110;-73
2022/04/26 04:17:31;;;;;;;38.15;20.70;;;;;;;19.58;46.07;99084.50;347409;28;1263;-72
2022/04/26 04:17:43;;;;;;;39.60;21.42;;;;;;;19.69;45.92;99081.84;347338;28;1325;-72
2022/04/26 04:17:55;;;;;;;40.58;22.75;;;;;;;19.70;45.89;99083.53;346373;28;1337;-73
2022/04/26 04:19:17;;;;;;;42.08;23.27;;;;;;;19.69;45.83;99082.69;346309;28;1291;-73
2022/04/26 04:19:20;;;;;;;37.90;21.30;;;;;;;19.09;46.69;99087.34;347047;28;1076;-72
2022/04/26 04:19:33;;;;;;;39.25;21.42;;;;;;;19.05;47.25;99092.97;347269;28;1262;-72
2022/04/26 04:19:47;;;;;;;39.58;21.15;;;;;;;19.08;47.26;99088.31;347459;28;1063;-72
2022/04/26 04:19:59;;;;;;;44.20;21.85;;;;;;;19.14;46.89;99082.59;348780;28;1041;-70
2022/04/26 04:20:11;;;;;;;50.00;22.80;;;;;;;19.15;47.21;99089.50;348761;28;1066;-70
2022/04/26 04:20:23;;;;;;;47.70;23.02;;;;;;;19.24;47.14;99089.78;349056;28;1143;-70
2022/04/26 04:20:36;;;;;;;44.97;23.08;;;;;;;19.28;47.08;99088.59;347342;28;1772;-72
2022/04/26 04:20:48;;;;;;;47.67;22.92;;;;;;;19.42;46.73;99085.72;347645;28;1183;-72
2022/04/26 04:21:00;;;;;;;50.83;22.83;;;;;;;19.25;47.34;99084.38;347956;28;1073;-72
2022/04/26 04:21:12;;;;;;;49.95;22.98;;;;;;;19.46;46.88;99081.88;347609;28;1036;-72
2022/04/26 04:21:24;;;;;;;52.85;23.38;;;;;;;19.38;47.13;99084.28;347579;28;1070;-72
2022/04/26 04:21:36;;;;;;;52.90;23.42;;;;;;;19.22;47.15;99087.25;348589;28;1219;-72
2022/04/26 04:21:51;;;;;;;49.55;23.48;;;;;;;19.26;47.28;99085.25;348111;28;1366;-71
2022/04/26 04:22:04;;;;;;;51.28;23.00;;;;;;;19.29;47.39;99079.72;347229;28;1042;-71
2022/04/26 04:22:16;;;;;;;56.85;23.38;;;;;;;19.33;47.74;99078.50;346448;28;1052;-72
2022/04/26 04:22:28;;;;;;;58.80;23.83;;;;;;;19.32;47.54;99082.94;346965;28;1362;-72
2022/04/26 04:22:40;;;;;;;54.90;23.65;;;;;;;19.41;47.34;99084.03;347805;28;1216;-72
2022/04/26 04:22:55;;;;;;;50.53;23.38;;;;;;;19.16;47.36;99085.09;346312;28;1329;-72
2022/04/26 04:23:07;;;;;;;47.45;23.27;;;;;;;19.27;47.46;99081.63;346314;28;1301;-73
2022/04/26 04:23:20;;;;;;;49.28;23.48;;;;;;;19.35;47.26;99079.22;346293;28;1295;-73
2022/04/26 04:23:36;;;;;;;55.25;23.98;;;;;;;19.29;47.40;99085.81;346105;28;1328;-72
2022/04/26 04:23:48;;;;;;;57.10;24.58;;;;;;;19.38;47.43;99089.53;346170;28;1297;-72
2022/04/26 04:24:00;;;;;;;57.28;24.88;;;;;;;19.38;47.26;99089.53;345885;28;1259;-73
2022/04/26 04:24:13;;;;;;;54.85;24.67;;;;;;;19.49;46.86;99091.34;346318;28;1091;-71
2022/04/26 04:24:25;;;;;;;52.42;24.15;;;;;;;19.27;47.26;99087.72;346389;28;1327;-73
2022/04/26 04:24:37;;;;;;;51.70;23.50;;;;;;;19.28;47.08;99093.84;346400;28;1066;-72
2022/04/26 04:24:49;;;;;;;50.20;22.70;;;;;;;19.26;47.04;99087.88;347402;28;1085;-72
2022/04/26 04:25:01;;;;;;;51.00;23.05;;;;;;;19.32;47.98;99090.84;347478;28;1184;-72
2022/04/26 04:25:14;;;;;;;52.38;23.83;;;;;;;19.42;47.30;99088.34;347723;28;1074;-72
2022/04/26 04:25:26;;;;;;;49.88;23.77;;;;;;;19.40;47.20;99087.63;347685;28;1093;-72
2022/04/26 04:25:37;;;;;;;46.75;23.10;;;;;;;19.22;47.15;99083.78;345949;28;1795;-73
2022/04/26 04:25:49;;;;;;;48.05;22.92;;;;;;;19.26;47.22;99085.25;347348;28;1236;-70
2022/04/26 04:26:02;;;;;;;47.45;23.52;;;;;;;19.30;47.46;99086.69;347413;28;1069;-70
2022/04/26 04:26:14;;;;;;;45.70;23.60;;;;;;;19.17;47.21;99092.03;347486;28;1703;-70
2022/04/26 04:26:26;;;;;;;40.53;21.98;;;;;;;19.14;47.26;99087.84;347424;28;1358;-70
2022/04/26 04:26:38;;;;;;;36.55;20.40;;;;;;;19.20;47.43;99088.34;347605;28;1061;-70
2022/04/26 04:26:50;;;;;;;32.33;19.20;;;;;;;19.34;47.22;99082.84;347547;28;1245;-70
2022/04/26 04:27:02;;;;;;;32.47;19.27;;;;;;;19.18;46.89;99085.00;347634;28;1031;-72
2022/04/26 04:27:14;;;;;;;32.45;19.13;;;;;;;18.91;47.09;99086.13;347518;28;1062;-72
2022/04/26 04:27:27;;;;;;;32.63;18.52;;;;;;;19.19;47.01;99089.28;347606;28;1350;-73
2022/04/26 04:27:39;;;;;;;31.55;18.35;;;;;;;19.19;46.54;99084.03;347315;28;1296;-72
2022/04/26 04:27:51;;;;;;;31.30;18.40;;;;;;;19.23;47.07;99082.81;347776;28;1221;-71
2022/04/26 04:28:03;;;;;;;31.90;18.35;;;;;;;19.15;46.42;99084.25;347776;28;1115;-72
2022/04/26 04:28:15;;;;;;;30.30;17.30;;;;;;;19.07;46.40;99076.09;347732;28;1262;-71
2022/04/26 04:28:27;;;;;;;27.55;16.23;;;;;;;18.92;47.35;99086.03;347596;28;1287;-72
2022/04/26 04:28:39;;;;;;;25.98;15.80;;;;;;;18.95;47.19;99087.56;347768;28;1230;-71
2022/04/26 04:28:51;;;;;;;24.60;15.07;;;;;;;19.04;46.98;99083.41;346657;28;1797;-72
2022/04/26 04:29:05;;;;;;;22.50;13.85;;;;;;;18.87;46.40;99084.69;346526;28;1013;-72
2022/04/26 04:29:17;;;;;;;21.80;13.30;;;;;;;19.06;46.83;99084.97;346583;28;1062;-72
2022/04/26 04:29:29;;;;;;;20.73;13.05;;;;;;;18.98;45.98;99082.09;346633;28;1398;-72
2022/04/26 04:29:43;;;;;;;16.88;11.10;;;;;;;18.93;45.45;99084.22;347603;28;1027;-72
2022/04/26 04:29:55;;;;;;;13.93;9.63;;;;;;;18.84;46.43;99084.94;347556;28;1093;-73
2022/04/26 04:30:08;;;;;;;13.82;9.43;;;;;;;18.84;46.35;99084.94;347631;28;1102;-73
2022/04/26 04:30:20;;;;;;;13.52;9.27;;;;;;;18.86;46.16;99083.03;347824;28;1220;-73
2022/04/26 04:30:32;;;;;;;12.88;8.55;;;;;;;18.96;46.41;99084.00;348841;28;1301;-72
2022/04/26 04:30:44;;;;;;;13.73;8.90;;;;;;;19.12;46.00;99084.50;348774;28;1279;-72
2022/04/26 04:30:56;;;;;;;13.50;8.50;;;;;;;18.99;44.97;99082.91;349668;28;1361;-72
2022/04/26 04:31:10;;;;;;;12.63;8.32;;;;;;;19.05;45.25;99091.19;348847;28;1085;-72
2022/04/26 04:31:22;;;;;;;12.05;8.00;;;;;;;19.04;45.34;99084.25;348820;28;1037;-72
2022/04/26 04:31:34;;;;;;;13.43;8.02;;;;;;;18.78;45.55;99086.19;346109;28;1903;-72
2022/04/26 04:31:46;;;;;;;12.68;7.68;;;;;;;18.90;45.23;99081.84;345056;28;1047;-73
2022/04/26 04:31:58;;;;;;;12.05;7.43;;;;;;;18.96;45.24;99089.28;345102;28;1240;-72
2022/04/26 04:32:11;;;;;;;10.18;7.35;;;;;;;18.90;45.29;99089.72;344708;28;1109;-73
2022/04/26 04:32:23;;;;;;;9.70;7.32;;;;;;;19.02;44.99;99083.53;344615;28;1048;-71
2022/04/26 04:32:35;;;;;;;10.15;7.63;;;;;;;18.90;45.09;99089.72;344806;28;1082;-72
2022/04/26 04:32:46;;;;;;;10.32;7.50;;;;;;;19.05;45.00;99091.19;344675;28;1060;-72
2022/04/26 04:32:58;;;;;;;9.50;7.07;;;;;;;19.06;45.09;99090.25;344992;28;1040;-72
2022/04/26 04:33:10;;;;;;;9.10;7.00;;;;;;;19.06;44.61;99090.25;345508;28;1035;-72
2022/04/26 04:33:22;;;;;;;9.43;7.30;;;;;;;18.98;44.74;99090.00;346291;28;1191;-72
2022/04/26 04:33:34;;;;;;;10.35;7.82;;;;;;;18.85;44.65;99091.88;345071;28;1098;-72
2022/04/26 04:33:48;;;;;;;10.63;8.13;;;;;;;18.65;45.53;99091.56;345221;28;1098;-73
2022/04/26 04:34:01;;;;;;;10.65;8.00;;;;;;;18.66;45.11;99087.97;346238;28;1682;-73
2022/04/26 04:34:14;;;;;;;11.70;7.90;;;;;;;18.52;45.51;99088.16;347597;28;1144;-72
2022/04/26 04:34:26;;;;;;;11.98;7.75;;;;;;;18.61;45.20;99095.34;347308;28;1348;-72
2022/04/26 04:34:38;;;;;;;10.50;7.32;;;;;;;18.56;45.65;99095.69;347701;28;1048;-71
2022/04/26 04:34:50;;;;;;;9.30;6.97;;;;;;;18.58;45.32;99100.84;347379;28;1050;-71
2022/04/26 04:35:02;;;;;;;9.13;6.63;;;;;;;18.58;45.45;99100.84;346249;28;1006;-71